sensor_id;sensor_type;location;lat;lon;timestamp;temperature;humidity
20242;DHT22;10279;46.388;8.116;2023-12-14T00:01:16;4.10;99.90
20242;DHT22;10279;46.388;8.116;2023-12-14T00:03:44;4.00;99.90
20242;DHT22;10279;46.388;8.116;2023-12-14T00:06:11;4.00;99.90
20242;DHT22;10279;46.388;8.116;2023-12-14T00:08:39;4.00;99.90
20242;DHT22;10279;46.388;8.116;2023-12-14T00:11:08;4.00;99.90
20242;DHT22;10279;46.388;8.116;2023-12-14T00:13:36;4.00;99.90
20242;DHT22;10279;46.388;8.116;2023-12-14T00:16:04;4.00;99.90
20242;DHT22;10279;46.388;8.116;2023-12-14T00:18:31;4.00;99.90
20242;DHT22;10279;46.388;8.116;2023-12-14T00:20:59;3.90;99.90
20242;DHT22;10279;46.388;8.116;2023-12-14T00:23:26;4.00;99.90
20242;DHT22;10279;46.388;8.116;2023-12-14T00:25:53;4.00;99.90
20242;DHT22;10279;46.388;8.116;2023-12-14T00:28:21;4.10;99.90
20242;DHT22;10279;46.388;8.116;2023-12-14T00:30:48;4.10;99.90
20242;DHT22;10279;46.388;8.116;2023-12-14T00:33:15;4.20;99.90
20242;DHT22;10279;46.388;8.116;2023-12-14T00:35:42;4.30;99.90
20242;DHT22;10279;46.388;8.116;2023-12-14T00:38:09;4.30;99.90
20242;DHT22;10279;46.388;8.116;2023-12-14T00:40:36;4.10;99.90
20242;DHT22;10279;46.388;8.116;2023-12-14T00:43:03;4.00;99.90
20242;DHT22;10279;46.388;8.116;2023-12-14T00:45:30;4.00;99.90
20242;DHT22;10279;46.388;8.116;2023-12-14T00:47:57;4.00;99.90
20242;DHT22;10279;46.388;8.116;2023-12-14T00:50:24;4.00;99.90
20242;DHT22;10279;46.388;8.116;2023-12-14T00:52:51;3.90;99.90
20242;DHT22;10279;46.388;8.116;2023-12-14T00:55:19;3.90;99.90
20242;DHT22;10279;46.388;8.116;2023-12-14T00:57:46;3.80;99.90
20242;DHT22;10279;46.388;8.116;2023-12-14T01:00:13;3.80;99.90
20242;DHT22;10279;46.388;8.116;2023-12-14T01:02:40;3.60;99.90
20242;DHT22;10279;46.388;8.116;2023-12-14T01:05:08;3.70;99.90
20242;DHT22;10279;46.388;8.116;2023-12-14T01:07:35;3.70;99.90
20242;DHT22;10279;46.388;8.116;2023-12-14T01:10:03;3.70;99.90
20242;DHT22;10279;46.388;8.116;2023-12-14T01:12:30;3.70;99.90
20242;DHT22;10279;46.388;8.116;2023-12-14T01:14:57;3.80;99.90
20242;DHT22;10279;46.388;8.116;2023-12-14T01:17:24;3.90;99.90
20242;DHT22;10279;46.388;8.116;2023-12-14T01:19:52;3.90;99.90
20242;DHT22;10279;46.388;8.116;2023-12-14T01:22:19;3.90;99.90
20242;DHT22;10279;46.388;8.116;2023-12-14T01:24:46;4.00;99.90
20242;DHT22;10279;46.388;8.116;2023-12-14T01:27:13;4.10;99.90
20242;DHT22;10279;46.388;8.116;2023-12-14T01:29:41;4.20;99.90
20242;DHT22;10279;46.388;8.116;2023-12-14T01:32:08;4.30;99.90
20242;DHT22;10279;46.388;8.116;2023-12-14T01:34:35;4.40;99.90
20242;DHT22;10279;46.388;8.116;2023-12-14T01:37:02;4.40;99.90
20242;DHT22;10279;46.388;8.116;2023-12-14T01:39:29;4.50;99.90
20242;DHT22;10279;46.388;8.116;2023-12-14T01:41:56;4.50;99.90
20242;DHT22;10279;46.388;8.116;2023-12-14T01:44:23;4.60;99.90
20242;DHT22;10279;46.388;8.116;2023-12-14T01:46:51;4.60;99.90
20242;DHT22;10279;46.388;8.116;2023-12-14T01:49:18;4.60;99.90
20242;DHT22;10279;46.388;8.116;2023-12-14T01:51:45;4.60;99.90
20242;DHT22;10279;46.388;8.116;2023-12-14T01:54:12;4.70;99.90
20242;DHT22;10279;46.388;8.116;2023-12-14T01:56:39;4.80;99.90
20242;DHT22;10279;46.388;8.116;2023-12-14T01:59:07;4.90;99.90
20242;DHT22;10279;46.388;8.116;2023-12-14T02:01:43;4.80;99.90
20242;DHT22;10279;46.388;8.116;2023-12-14T02:04:12;4.90;99.90
20242;DHT22;10279;46.388;8.116;2023-12-14T02:06:40;4.90;99.90
20242;DHT22;10279;46.388;8.116;2023-12-14T02:09:08;4.90;99.90
20242;DHT22;10279;46.388;8.116;2023-12-14T02:11:35;4.90;99.90
20242;DHT22;10279;46.388;8.116;2023-12-14T02:14:06;5.00;99.90
20242;DHT22;10279;46.388;8.116;2023-12-14T02:16:34;5.00;99.90
20242;DHT22;10279;46.388;8.116;2023-12-14T02:19:01;5.00;99.90
20242;DHT22;10279;46.388;8.116;2023-12-14T02:21:28;5.00;99.90
20242;DHT22;10279;46.388;8.116;2023-12-14T02:23:55;5.00;99.90
20242;DHT22;10279;46.388;8.116;2023-12-14T02:26:23;5.10;99.90
20242;DHT22;10279;46.388;8.116;2023-12-14T02:28:50;5.10;99.90
20242;DHT22;10279;46.388;8.116;2023-12-14T02:31:18;5.10;99.90
20242;DHT22;10279;46.388;8.116;2023-12-14T02:33:45;5.10;99.90
20242;DHT22;10279;46.388;8.116;2023-12-14T02:36:13;5.00;99.90
20242;DHT22;10279;46.388;8.116;2023-12-14T02:38:40;5.00;99.90
20242;DHT22;10279;46.388;8.116;2023-12-14T02:41:07;5.00;99.90
20242;DHT22;10279;46.388;8.116;2023-12-14T02:43:34;4.90;99.90
20242;DHT22;10279;46.388;8.116;2023-12-14T02:46:02;4.80;99.90
20242;DHT22;10279;46.388;8.116;2023-12-14T02:48:29;4.80;99.90
20242;DHT22;10279;46.388;8.116;2023-12-14T02:50:57;4.80;99.90
20242;DHT22;10279;46.388;8.116;2023-12-14T02:53:27;4.80;99.90
20242;DHT22;10279;46.388;8.116;2023-12-14T02:55:54;4.80;99.90
20242;DHT22;10279;46.388;8.116;2023-12-14T02:58:21;4.80;99.90
20242;DHT22;10279;46.388;8.116;2023-12-14T03:00:48;4.80;99.90
20242;DHT22;10279;46.388;8.116;2023-12-14T03:03:16;4.90;99.90
20242;DHT22;10279;46.388;8.116;2023-12-14T03:05:43;4.90;99.90
20242;DHT22;10279;46.388;8.116;2023-12-14T03:08:10;4.90;99.90
20242;DHT22;10279;46.388;8.116;2023-12-14T03:10:37;5.00;99.90
20242;DHT22;10279;46.388;8.116;2023-12-14T03:13:04;5.00;99.90
20242;DHT22;10279;46.388;8.116;2023-12-14T03:15:31;5.00;99.90
20242;DHT22;10279;46.388;8.116;2023-12-14T03:17:58;5.00;99.90
20242;DHT22;10279;46.388;8.116;2023-12-14T03:20:26;5.00;99.90
20242;DHT22;10279;46.388;8.116;2023-12-14T03:22:53;4.90;99.90
20242;DHT22;10279;46.388;8.116;2023-12-14T03:25:20;4.90;99.90
20242;DHT22;10279;46.388;8.116;2023-12-14T03:27:48;4.90;99.90
20242;DHT22;10279;46.388;8.116;2023-12-14T03:30:16;5.00;99.90
20242;DHT22;10279;46.388;8.116;2023-12-14T03:32:43;5.00;99.90
20242;DHT22;10279;46.388;8.116;2023-12-14T03:35:10;5.00;99.90
20242;DHT22;10279;46.388;8.116;2023-12-14T03:37:37;5.00;99.90
20242;DHT22;10279;46.388;8.116;2023-12-14T03:40:05;5.00;99.90
20242;DHT22;10279;46.388;8.116;2023-12-14T03:42:32;5.00;99.90
20242;DHT22;10279;46.388;8.116;2023-12-14T03:45:00;5.00;99.90
20242;DHT22;10279;46.388;8.116;2023-12-14T03:47:27;5.00;99.90
20242;DHT22;10279;46.388;8.116;2023-12-14T03:49:54;5.00;99.90
20242;DHT22;10279;46.388;8.116;2023-12-14T03:52:21;5.00;99.90
20242;DHT22;10279;46.388;8.116;2023-12-14T03:54:48;4.90;99.90
20242;DHT22;10279;46.388;8.116;2023-12-14T03:57:15;4.90;99.90
20242;DHT22;10279;46.388;8.116;2023-12-14T03:59:42;4.90;99.90
20242;DHT22;10279;46.388;8.116;2023-12-14T04:02:09;4.90;99.90
20242;DHT22;10279;46.388;8.116;2023-12-14T04:04:36;5.00;99.90
20242;DHT22;10279;46.388;8.116;2023-12-14T04:07:04;5.00;99.90
20242;DHT22;10279;46.388;8.116;2023-12-14T04:09:31;5.00;99.90
20242;DHT22;10279;46.388;8.116;2023-12-14T04:11:58;5.00;99.90
20242;DHT22;10279;46.388;8.116;2023-12-14T04:14:25;5.00;99.90
20242;DHT22;10279;46.388;8.116;2023-12-14T04:16:52;5.00;99.90
20242;DHT22;10279;46.388;8.116;2023-12-14T04:19:19;5.00;99.90
20242;DHT22;10279;46.388;8.116;2023-12-14T04:21:46;5.00;99.90
20242;DHT22;10279;46.388;8.116;2023-12-14T04:24:13;5.00;99.90
20242;DHT22;10279;46.388;8.116;2023-12-14T04:26:40;5.00;99.90
20242;DHT22;10279;46.388;8.116;2023-12-14T04:29:07;4.90;99.90
20242;DHT22;10279;46.388;8.116;2023-12-14T04:31:35;4.90;99.90
20242;DHT22;10279;46.388;8.116;2023-12-14T04:34:02;5.00;99.90
20242;DHT22;10279;46.388;8.116;2023-12-14T04:36:29;5.00;99.90
20242;DHT22;10279;46.388;8.116;2023-12-14T04:38:56;5.00;99.90
20242;DHT22;10279;46.388;8.116;2023-12-14T04:41:23;5.00;99.90
20242;DHT22;10279;46.388;8.116;2023-12-14T04:43:50;4.90;99.90
20242;DHT22;10279;46.388;8.116;2023-12-14T04:46:17;5.00;99.90
20242;DHT22;10279;46.388;8.116;2023-12-14T04:48:45;4.90;99.90
20242;DHT22;10279;46.388;8.116;2023-12-14T04:51:12;4.90;99.90
20242;DHT22;10279;46.388;8.116;2023-12-14T04:53:40;4.90;99.90
20242;DHT22;10279;46.388;8.116;2023-12-14T04:56:11;4.90;99.90
20242;DHT22;10279;46.388;8.116;2023-12-14T04:58:39;4.90;99.90
20242;DHT22;10279;46.388;8.116;2023-12-14T05:01:07;4.90;99.90
20242;DHT22;10279;46.388;8.116;2023-12-14T05:03:37;4.80;99.90
20242;DHT22;10279;46.388;8.116;2023-12-14T05:06:05;4.80;99.90
20242;DHT22;10279;46.388;8.116;2023-12-14T05:08:33;4.80;99.90
20242;DHT22;10279;46.388;8.116;2023-12-14T05:11:00;4.70;99.90
20242;DHT22;10279;46.388;8.116;2023-12-14T05:13:27;4.60;99.90
20242;DHT22;10279;46.388;8.116;2023-12-14T05:15:54;4.30;99.90
20242;DHT22;10279;46.388;8.116;2023-12-14T05:18:21;4.20;99.90
20242;DHT22;10279;46.388;8.116;2023-12-14T05:20:48;4.10;99.90
20242;DHT22;10279;46.388;8.116;2023-12-14T05:23:15;4.10;99.90
20242;DHT22;10279;46.388;8.116;2023-12-14T05:25:43;4.10;99.90
20242;DHT22;10279;46.388;8.116;2023-12-14T05:28:10;4.00;99.90
20242;DHT22;10279;46.388;8.116;2023-12-14T05:30:37;3.90;99.90
20242;DHT22;10279;46.388;8.116;2023-12-14T05:33:05;3.80;99.90
20242;DHT22;10279;46.388;8.116;2023-12-14T05:35:33;3.90;99.90
20242;DHT22;10279;46.388;8.116;2023-12-14T05:38:00;3.90;99.90
20242;DHT22;10279;46.388;8.116;2023-12-14T05:40:27;4.00;99.90
20242;DHT22;10279;46.388;8.116;2023-12-14T05:42:54;4.00;99.90
20242;DHT22;10279;46.388;8.116;2023-12-14T05:45:22;4.00;99.90
20242;DHT22;10279;46.388;8.116;2023-12-14T05:47:49;3.90;99.90
20242;DHT22;10279;46.388;8.116;2023-12-14T05:50:16;3.80;99.90
20242;DHT22;10279;46.388;8.116;2023-12-14T05:52:43;3.80;99.90
20242;DHT22;10279;46.388;8.116;2023-12-14T05:55:12;3.80;99.90
20242;DHT22;10279;46.388;8.116;2023-12-14T05:57:39;3.80;99.90
20242;DHT22;10279;46.388;8.116;2023-12-14T06:00:07;3.80;99.90
20242;DHT22;10279;46.388;8.116;2023-12-14T06:02:34;3.80;99.90
20242;DHT22;10279;46.388;8.116;2023-12-14T06:05:07;3.90;99.90
20242;DHT22;10279;46.388;8.116;2023-12-14T06:07:34;3.90;99.90
20242;DHT22;10279;46.388;8.116;2023-12-14T06:10:02;3.90;99.90
20242;DHT22;10279;46.388;8.116;2023-12-14T06:12:30;3.90;99.90
20242;DHT22;10279;46.388;8.116;2023-12-14T06:14:57;4.00;99.90
20242;DHT22;10279;46.388;8.116;2023-12-14T06:17:24;4.10;99.90
20242;DHT22;10279;46.388;8.116;2023-12-14T06:19:56;4.10;99.90
20242;DHT22;10279;46.388;8.116;2023-12-14T06:22:23;4.10;99.90
20242;DHT22;10279;46.388;8.116;2023-12-14T06:24:49;4.10;99.90
20242;DHT22;10279;46.388;8.116;2023-12-14T06:27:17;4.10;99.90
20242;DHT22;10279;46.388;8.116;2023-12-14T06:29:44;4.10;99.90
20242;DHT22;10279;46.388;8.116;2023-12-14T06:32:11;4.00;99.90
20242;DHT22;10279;46.388;8.116;2023-12-14T06:34:38;3.90;99.90
20242;DHT22;10279;46.388;8.116;2023-12-14T06:37:06;3.80;99.90
20242;DHT22;10279;46.388;8.116;2023-12-14T06:39:33;3.80;99.90
20242;DHT22;10279;46.388;8.116;2023-12-14T06:42:00;3.90;99.90
20242;DHT22;10279;46.388;8.116;2023-12-14T06:44:27;3.90;99.90
20242;DHT22;10279;46.388;8.116;2023-12-14T06:46:54;4.00;99.90
20242;DHT22;10279;46.388;8.116;2023-12-14T06:49:23;4.00;99.90
20242;DHT22;10279;46.388;8.116;2023-12-14T06:51:50;3.90;99.90
20242;DHT22;10279;46.388;8.116;2023-12-14T06:54:17;4.00;99.90
20242;DHT22;10279;46.388;8.116;2023-12-14T06:56:44;4.00;99.90
20242;DHT22;10279;46.388;8.116;2023-12-14T06:59:11;4.00;99.90
20242;DHT22;10279;46.388;8.116;2023-12-14T07:01:38;4.10;99.90
20242;DHT22;10279;46.388;8.116;2023-12-14T07:04:05;4.10;99.90
20242;DHT22;10279;46.388;8.116;2023-12-14T07:06:32;4.20;99.90
20242;DHT22;10279;46.388;8.116;2023-12-14T07:09:02;4.30;99.90
20242;DHT22;10279;46.388;8.116;2023-12-14T07:11:29;4.30;99.90
20242;DHT22;10279;46.388;8.116;2023-12-14T07:13:56;4.40;99.90
20242;DHT22;10279;46.388;8.116;2023-12-14T07:16:23;4.50;99.90
20242;DHT22;10279;46.388;8.116;2023-12-14T07:18:50;4.50;99.90
20242;DHT22;10279;46.388;8.116;2023-12-14T07:21:17;4.50;99.90
20242;DHT22;10279;46.388;8.116;2023-12-14T07:23:44;4.50;99.90
20242;DHT22;10279;46.388;8.116;2023-12-14T07:26:11;4.60;99.90
20242;DHT22;10279;46.388;8.116;2023-12-14T07:28:38;4.60;99.90
20242;DHT22;10279;46.388;8.116;2023-12-14T07:31:05;4.60;99.90
20242;DHT22;10279;46.388;8.116;2023-12-14T07:33:33;4.60;99.90
20242;DHT22;10279;46.388;8.116;2023-12-14T07:36:00;4.60;99.90
20242;DHT22;10279;46.388;8.116;2023-12-14T07:38:27;4.60;99.90
20242;DHT22;10279;46.388;8.116;2023-12-14T07:40:54;4.70;99.90
20242;DHT22;10279;46.388;8.116;2023-12-14T07:43:22;4.70;99.90
20242;DHT22;10279;46.388;8.116;2023-12-14T07:45:49;4.60;99.90
20242;DHT22;10279;46.388;8.116;2023-12-14T07:48:16;4.70;99.90
20242;DHT22;10279;46.388;8.116;2023-12-14T07:50:44;4.70;99.90
20242;DHT22;10279;46.388;8.116;2023-12-14T07:53:11;4.70;99.90
20242;DHT22;10279;46.388;8.116;2023-12-14T07:55:38;4.70;99.90
20242;DHT22;10279;46.388;8.116;2023-12-14T07:58:05;4.70;99.90
20242;DHT22;10279;46.388;8.116;2023-12-14T08:00:34;4.60;99.90
20242;DHT22;10279;46.388;8.116;2023-12-14T08:03:01;4.60;99.90
20242;DHT22;10279;46.388;8.116;2023-12-14T08:05:29;4.60;99.90
20242;DHT22;10279;46.388;8.116;2023-12-14T08:07:56;4.60;99.90
20242;DHT22;10279;46.388;8.116;2023-12-14T08:10:23;4.70;99.90
20242;DHT22;10279;46.388;8.116;2023-12-14T08:12:50;4.70;99.90
20242;DHT22;10279;46.388;8.116;2023-12-14T08:15:18;4.70;99.90
20242;DHT22;10279;46.388;8.116;2023-12-14T08:17:45;4.80;99.90
20242;DHT22;10279;46.388;8.116;2023-12-14T08:20:13;4.70;99.90
20242;DHT22;10279;46.388;8.116;2023-12-14T08:22:40;4.70;99.90
20242;DHT22;10279;46.388;8.116;2023-12-14T08:25:14;4.70;99.90
20242;DHT22;10279;46.388;8.116;2023-12-14T08:27:42;4.70;99.90
20242;DHT22;10279;46.388;8.116;2023-12-14T08:30:10;4.80;99.90
20242;DHT22;10279;46.388;8.116;2023-12-14T08:32:37;4.80;99.90
20242;DHT22;10279;46.388;8.116;2023-12-14T08:35:05;4.90;99.90
20242;DHT22;10279;46.388;8.116;2023-12-14T08:37:32;5.00;99.90
20242;DHT22;10279;46.388;8.116;2023-12-14T08:40:00;5.00;99.90
20242;DHT22;10279;46.388;8.116;2023-12-14T08:42:27;5.10;99.90
20242;DHT22;10279;46.388;8.116;2023-12-14T08:44:54;5.00;99.90
20242;DHT22;10279;46.388;8.116;2023-12-14T08:47:21;5.00;99.90
20242;DHT22;10279;46.388;8.116;2023-12-14T08:49:48;5.00;99.90
20242;DHT22;10279;46.388;8.116;2023-12-14T08:52:15;5.00;99.90
20242;DHT22;10279;46.388;8.116;2023-12-14T08:54:42;5.00;99.90
20242;DHT22;10279;46.388;8.116;2023-12-14T08:57:12;5.10;99.90
20242;DHT22;10279;46.388;8.116;2023-12-14T08:59:39;5.10;99.90
20242;DHT22;10279;46.388;8.116;2023-12-14T09:02:10;5.10;99.90
20242;DHT22;10279;46.388;8.116;2023-12-14T09:04:38;5.20;99.90
20242;DHT22;10279;46.388;8.116;2023-12-14T09:07:05;5.20;99.90
20242;DHT22;10279;46.388;8.116;2023-12-14T09:09:32;5.30;99.90
20242;DHT22;10279;46.388;8.116;2023-12-14T09:12:00;5.30;99.90
20242;DHT22;10279;46.388;8.116;2023-12-14T09:14:27;5.30;99.90
20242;DHT22;10279;46.388;8.116;2023-12-14T09:16:54;5.30;99.90
20242;DHT22;10279;46.388;8.116;2023-12-14T09:19:21;5.20;99.90
20242;DHT22;10279;46.388;8.116;2023-12-14T09:21:48;5.20;99.90
20242;DHT22;10279;46.388;8.116;2023-12-14T09:24:16;5.20;99.90
20242;DHT22;10279;46.388;8.116;2023-12-14T09:26:43;5.30;99.90
20242;DHT22;10279;46.388;8.116;2023-12-14T09:29:10;5.40;99.90
20242;DHT22;10279;46.388;8.116;2023-12-14T09:31:41;5.40;99.90
20242;DHT22;10279;46.388;8.116;2023-12-14T09:34:10;5.50;99.90
20242;DHT22;10279;46.388;8.116;2023-12-14T09:36:38;5.30;99.90
20242;DHT22;10279;46.388;8.116;2023-12-14T09:39:06;5.20;99.90
20242;DHT22;10279;46.388;8.116;2023-12-14T09:41:38;4.80;99.90
20242;DHT22;10279;46.388;8.116;2023-12-14T09:44:06;4.50;99.90
20242;DHT22;10279;46.388;8.116;2023-12-14T09:46:37;4.50;99.90
20242;DHT22;10279;46.388;8.116;2023-12-14T09:49:05;4.40;99.90
20242;DHT22;10279;46.388;8.116;2023-12-14T09:51:35;4.40;99.90
20242;DHT22;10279;46.388;8.116;2023-12-14T09:54:03;4.30;99.90
20242;DHT22;10279;46.388;8.116;2023-12-14T09:56:30;4.30;99.90
20242;DHT22;10279;46.388;8.116;2023-12-14T09:58:57;4.20;99.90
20242;DHT22;10279;46.388;8.116;2023-12-14T10:01:26;4.10;99.90
20242;DHT22;10279;46.388;8.116;2023-12-14T10:04:12;4.10;99.90
20242;DHT22;10279;46.388;8.116;2023-12-14T10:06:41;4.20;99.90
20242;DHT22;10279;46.388;8.116;2023-12-14T10:09:08;4.30;99.90
20242;DHT22;10279;46.388;8.116;2023-12-14T10:11:42;4.40;99.90
20242;DHT22;10279;46.388;8.116;2023-12-14T10:14:20;4.40;99.90
20242;DHT22;10279;46.388;8.116;2023-12-14T10:16:49;4.40;99.90
20242;DHT22;10279;46.388;8.116;2023-12-14T10:19:19;4.50;99.90
20242;DHT22;10279;46.388;8.116;2023-12-14T10:21:47;4.60;99.90
20242;DHT22;10279;46.388;8.116;2023-12-14T10:24:15;4.60;99.90
20242;DHT22;10279;46.388;8.116;2023-12-14T10:26:47;4.70;99.90
20242;DHT22;10279;46.388;8.116;2023-12-14T10:29:15;4.80;99.90
20242;DHT22;10279;46.388;8.116;2023-12-14T10:31:43;4.90;99.90
20242;DHT22;10279;46.388;8.116;2023-12-14T10:34:11;5.00;99.90
20242;DHT22;10279;46.388;8.116;2023-12-14T10:36:40;5.00;99.90
20242;DHT22;10279;46.388;8.116;2023-12-14T10:39:11;5.10;99.90
20242;DHT22;10279;46.388;8.116;2023-12-14T10:41:41;5.20;99.90
20242;DHT22;10279;46.388;8.116;2023-12-14T10:44:09;5.10;99.90
20242;DHT22;10279;46.388;8.116;2023-12-14T10:46:58;5.20;99.90
20242;DHT22;10279;46.388;8.116;2023-12-14T10:49:27;5.40;99.90
20242;DHT22;10279;46.388;8.116;2023-12-14T10:51:57;5.30;99.90
20242;DHT22;10279;46.388;8.116;2023-12-14T10:54:26;5.40;99.90
20242;DHT22;10279;46.388;8.116;2023-12-14T10:56:56;5.40;99.90
20242;DHT22;10279;46.388;8.116;2023-12-14T10:59:26;5.30;99.90
20242;DHT22;10279;46.388;8.116;2023-12-14T11:01:54;5.40;99.90
20242;DHT22;10279;46.388;8.116;2023-12-14T11:04:22;5.40;99.90
20242;DHT22;10279;46.388;8.116;2023-12-14T11:06:49;5.50;99.90
20242;DHT22;10279;46.388;8.116;2023-12-14T11:09:18;5.50;99.90
20242;DHT22;10279;46.388;8.116;2023-12-14T11:11:57;5.60;99.90
20242;DHT22;10279;46.388;8.116;2023-12-14T11:14:33;5.70;99.90
20242;DHT22;10279;46.388;8.116;2023-12-14T11:17:06;5.80;99.90
20242;DHT22;10279;46.388;8.116;2023-12-14T11:19:34;6.00;99.90
20242;DHT22;10279;46.388;8.116;2023-12-14T11:24:37;6.30;99.90
20242;DHT22;10279;46.388;8.116;2023-12-14T11:27:09;6.30;99.90
20242;DHT22;10279;46.388;8.116;2023-12-14T11:29:37;6.30;99.90
20242;DHT22;10279;46.388;8.116;2023-12-14T11:32:08;6.10;99.90
20242;DHT22;10279;46.388;8.116;2023-12-14T11:34:39;6.20;99.90
20242;DHT22;10279;46.388;8.116;2023-12-14T11:37:06;6.30;99.90
20242;DHT22;10279;46.388;8.116;2023-12-14T11:39:34;6.40;99.90
20242;DHT22;10279;46.388;8.116;2023-12-14T11:42:03;6.50;99.90
20242;DHT22;10279;46.388;8.116;2023-12-14T11:44:30;6.60;99.90
20242;DHT22;10279;46.388;8.116;2023-12-14T11:46:58;6.60;99.90
20242;DHT22;10279;46.388;8.116;2023-12-14T11:49:26;6.60;99.90
20242;DHT22;10279;46.388;8.116;2023-12-14T11:51:56;6.50;99.90
20242;DHT22;10279;46.388;8.116;2023-12-14T11:54:23;6.30;99.90
20242;DHT22;10279;46.388;8.116;2023-12-14T11:56:50;6.20;99.90
20242;DHT22;10279;46.388;8.116;2023-12-14T11:59:18;6.10;99.90
20242;DHT22;10279;46.388;8.116;2023-12-14T12:01:54;5.90;99.90
20242;DHT22;10279;46.388;8.116;2023-12-14T12:04:23;5.80;99.90
20242;DHT22;10279;46.388;8.116;2023-12-14T12:07:02;5.70;99.90
20242;DHT22;10279;46.388;8.116;2023-12-14T12:09:41;5.70;99.90
20242;DHT22;10279;46.388;8.116;2023-12-14T12:12:10;5.50;99.90
20242;DHT22;10279;46.388;8.116;2023-12-14T12:14:38;5.30;99.90
20242;DHT22;10279;46.388;8.116;2023-12-14T12:17:06;5.30;99.90
20242;DHT22;10279;46.388;8.116;2023-12-14T12:19:35;5.40;99.90
20242;DHT22;10279;46.388;8.116;2023-12-14T12:22:04;5.50;99.90
20242;DHT22;10279;46.388;8.116;2023-12-14T12:24:32;5.50;99.90
20242;DHT22;10279;46.388;8.116;2023-12-14T12:27:01;5.50;99.90
20242;DHT22;10279;46.388;8.116;2023-12-14T12:29:28;5.50;99.90
20242;DHT22;10279;46.388;8.116;2023-12-14T12:31:55;5.60;99.90
20242;DHT22;10279;46.388;8.116;2023-12-14T12:34:22;5.60;99.90
20242;DHT22;10279;46.388;8.116;2023-12-14T12:36:50;5.80;99.90
20242;DHT22;10279;46.388;8.116;2023-12-14T12:39:17;5.90;99.90
20242;DHT22;10279;46.388;8.116;2023-12-14T12:41:44;6.00;99.90
20242;DHT22;10279;46.388;8.116;2023-12-14T12:44:11;6.10;99.90
20242;DHT22;10279;46.388;8.116;2023-12-14T12:46:38;6.20;99.90
20242;DHT22;10279;46.388;8.116;2023-12-14T12:49:07;6.20;99.90
20242;DHT22;10279;46.388;8.116;2023-12-14T12:51:34;6.20;99.90
20242;DHT22;10279;46.388;8.116;2023-12-14T12:54:02;6.20;99.90
20242;DHT22;10279;46.388;8.116;2023-12-14T12:56:39;6.20;99.90
20242;DHT22;10279;46.388;8.116;2023-12-14T12:59:07;6.40;99.90
20242;DHT22;10279;46.388;8.116;2023-12-14T13:01:36;6.30;99.90
20242;DHT22;10279;46.388;8.116;2023-12-14T13:04:04;6.40;99.90
20242;DHT22;10279;46.388;8.116;2023-12-14T13:06:31;6.40;99.90
20242;DHT22;10279;46.388;8.116;2023-12-14T13:08:59;6.40;99.90
20242;DHT22;10279;46.388;8.116;2023-12-14T13:11:26;6.30;99.90
20242;DHT22;10279;46.388;8.116;2023-12-14T13:13:53;6.20;99.90
20242;DHT22;10279;46.388;8.116;2023-12-14T13:16:20;6.20;99.90
20242;DHT22;10279;46.388;8.116;2023-12-14T13:18:47;6.20;99.90
20242;DHT22;10279;46.388;8.116;2023-12-14T13:21:14;6.30;99.90
20242;DHT22;10279;46.388;8.116;2023-12-14T13:23:41;6.40;99.90
20242;DHT22;10279;46.388;8.116;2023-12-14T13:26:09;6.50;99.90
20242;DHT22;10279;46.388;8.116;2023-12-14T13:28:36;6.60;99.90
20242;DHT22;10279;46.388;8.116;2023-12-14T13:31:03;6.80;99.90
20242;DHT22;10279;46.388;8.116;2023-12-14T13:33:31;6.70;99.90
20242;DHT22;10279;46.388;8.116;2023-12-14T13:35:58;6.80;99.90
20242;DHT22;10279;46.388;8.116;2023-12-14T13:38:25;6.90;99.90
20242;DHT22;10279;46.388;8.116;2023-12-14T13:40:52;6.90;99.90
20242;DHT22;10279;46.388;8.116;2023-12-14T13:43:19;6.90;99.90
20242;DHT22;10279;46.388;8.116;2023-12-14T13:45:46;6.90;99.90
20242;DHT22;10279;46.388;8.116;2023-12-14T13:48:27;7.00;99.90
20242;DHT22;10279;46.388;8.116;2023-12-14T13:50:55;7.00;99.90
20242;DHT22;10279;46.388;8.116;2023-12-14T13:53:23;7.00;99.90
20242;DHT22;10279;46.388;8.116;2023-12-14T13:55:50;7.00;99.90
20242;DHT22;10279;46.388;8.116;2023-12-14T13:58:18;6.90;99.90
20242;DHT22;10279;46.388;8.116;2023-12-14T14:00:45;6.90;99.90
20242;DHT22;10279;46.388;8.116;2023-12-14T14:03:12;6.90;99.90
20242;DHT22;10279;46.388;8.116;2023-12-14T14:05:40;6.90;99.90
20242;DHT22;10279;46.388;8.116;2023-12-14T14:08:07;6.80;99.90
20242;DHT22;10279;46.388;8.116;2023-12-14T14:10:43;6.80;99.90
20242;DHT22;10279;46.388;8.116;2023-12-14T14:13:10;6.70;99.90
20242;DHT22;10279;46.388;8.116;2023-12-14T14:15:37;6.50;99.90
20242;DHT22;10279;46.388;8.116;2023-12-14T14:18:04;6.40;99.90
20242;DHT22;10279;46.388;8.116;2023-12-14T14:20:31;6.20;99.90
20242;DHT22;10279;46.388;8.116;2023-12-14T14:22:59;6.10;99.90
20242;DHT22;10279;46.388;8.116;2023-12-14T14:25:26;6.10;99.90
20242;DHT22;10279;46.388;8.116;2023-12-14T14:27:54;6.00;99.90
20242;DHT22;10279;46.388;8.116;2023-12-14T14:30:21;6.00;99.90
20242;DHT22;10279;46.388;8.116;2023-12-14T14:32:48;6.10;99.90
20242;DHT22;10279;46.388;8.116;2023-12-14T14:35:15;6.10;99.90
20242;DHT22;10279;46.388;8.116;2023-12-14T14:37:43;6.20;99.90
20242;DHT22;10279;46.388;8.116;2023-12-14T14:40:14;6.30;99.90
20242;DHT22;10279;46.388;8.116;2023-12-14T14:42:41;6.40;99.90
20242;DHT22;10279;46.388;8.116;2023-12-14T14:45:12;6.40;99.90
20242;DHT22;10279;46.388;8.116;2023-12-14T14:47:40;6.50;99.90
20242;DHT22;10279;46.388;8.116;2023-12-14T14:50:10;6.60;99.90
20242;DHT22;10279;46.388;8.116;2023-12-14T14:52:37;6.60;99.90
20242;DHT22;10279;46.388;8.116;2023-12-14T14:55:05;6.60;99.90
20242;DHT22;10279;46.388;8.116;2023-12-14T14:57:33;6.50;99.90
20242;DHT22;10279;46.388;8.116;2023-12-14T15:00:00;6.50;99.90
20242;DHT22;10279;46.388;8.116;2023-12-14T15:02:27;6.50;99.90
20242;DHT22;10279;46.388;8.116;2023-12-14T15:04:54;6.50;99.90
20242;DHT22;10279;46.388;8.116;2023-12-14T15:07:22;6.40;99.90
20242;DHT22;10279;46.388;8.116;2023-12-14T15:09:49;6.40;99.90
20242;DHT22;10279;46.388;8.116;2023-12-14T15:12:16;6.30;99.90
20242;DHT22;10279;46.388;8.116;2023-12-14T15:14:43;6.30;99.90
20242;DHT22;10279;46.388;8.116;2023-12-14T15:17:12;6.20;99.90
20242;DHT22;10279;46.388;8.116;2023-12-14T15:19:40;6.10;99.90
20242;DHT22;10279;46.388;8.116;2023-12-14T15:22:07;5.90;99.90
20242;DHT22;10279;46.388;8.116;2023-12-14T15:24:34;5.70;99.90
20242;DHT22;10279;46.388;8.116;2023-12-14T15:27:01;5.50;99.90
20242;DHT22;10279;46.388;8.116;2023-12-14T15:29:33;5.50;99.90
20242;DHT22;10279;46.388;8.116;2023-12-14T15:32:00;5.40;99.90
20242;DHT22;10279;46.388;8.116;2023-12-14T15:34:27;5.30;99.90
20242;DHT22;10279;46.388;8.116;2023-12-14T15:36:54;5.30;99.90
20242;DHT22;10279;46.388;8.116;2023-12-14T15:39:21;5.30;99.90
20242;DHT22;10279;46.388;8.116;2023-12-14T15:41:49;5.30;99.90
20242;DHT22;10279;46.388;8.116;2023-12-14T15:44:16;5.20;99.90
20242;DHT22;10279;46.388;8.116;2023-12-14T15:46:43;5.10;99.90
20242;DHT22;10279;46.388;8.116;2023-12-14T15:49:10;5.00;99.90
20242;DHT22;10279;46.388;8.116;2023-12-14T15:51:40;5.00;99.90